createdAt,value
2019-05-26T00:16:22.221Z,62.4
2019-05-26T00:33:03.289Z,62.8
2019-05-26T00:49:43.779Z,63.6
2019-05-26T01:06:24.183Z,63.6
2019-05-26T01:23:04.304Z,63.6
2019-05-26T01:39:44.340Z,64.4
2019-05-26T01:56:24.167Z,64.4
2019-05-26T02:13:04.133Z,64.8
2019-05-26T02:29:44.035Z,64.8
2019-05-26T02:46:23.925Z,64.8
2019-05-26T03:03:03.770Z,65.6
2019-05-26T03:19:43.373Z,66.4
2019-05-26T03:36:22.874Z,66.8
2019-05-26T03:53:02.115Z,66.8
2019-05-26T04:09:41.642Z,67.2
2019-05-26T04:26:21.269Z,67.6
2019-05-26T04:43:01.357Z,68.0
2019-05-26T04:59:41.921Z,67.6
2019-05-26T05:16:22.976Z,67.2
2019-05-26T05:33:04.293Z,66.8
2019-05-26T05:46:25.781Z,66.4
2019-05-26T06:03:07.986Z,66.0
2019-05-26T06:16:29.965Z,65.2
2019-05-26T06:33:12.622Z,64.8
2019-05-26T06:49:55.439Z,64.4
2019-05-26T07:06:38.485Z,64.0
2019-05-26T07:23:21.519Z,64.0
2019-05-26T07:30:02.925Z,63.6
2019-05-26T07:40:05.384Z,62.8
2019-05-26T07:56:49.882Z,61.6
2019-05-26T08:13:34.383Z,61.6
2019-05-26T08:26:58.058Z,60.8
2019-05-26T08:43:43.359Z,59.6
2019-05-26T08:57:07.631Z,57.6
2019-05-26T09:13:53.298Z,56.8
2019-05-26T09:30:39.506Z,55.2
2019-05-26T09:40:43.636Z,54.0
2019-05-26T09:57:31.320Z,52.4
2019-05-26T10:14:19.073Z,51.2
2019-05-26T10:31:07.246Z,50.4
2019-05-26T10:47:56.195Z,50.0
2019-05-26T11:01:22.671Z,49.2
2019-05-26T11:18:11.681Z,49.2
2019-05-26T11:35:02.321Z,48.4
2019-05-26T11:51:50.856Z,48.4
2019-05-26T12:08:40.618Z,47.6
2019-05-26T12:25:31.093Z,46.8
2019-05-26T12:42:21.335Z,47.2
2019-05-26T12:59:12.363Z,47.2
2019-05-26T13:16:02.513Z,47.6
2019-05-26T13:32:53.405Z,47.6
2019-05-26T13:49:44.309Z,48.0
2019-05-26T14:06:34.910Z,48.8
2019-05-26T14:09:56.933Z,48.8
2019-05-26T14:16:40.749Z,50.0
2019-05-26T14:33:29.261Z,51.2
2019-05-26T14:50:18.111Z,51.6
2019-05-26T15:03:45.336Z,51.2
2019-05-26T15:20:34.756Z,51.2
2019-05-26T15:37:24.135Z,51.2
2019-05-26T15:54:13.995Z,50.8
2019-05-26T16:04:20.061Z,50.8
2019-05-26T16:14:25.514Z,51.2
2019-05-26T16:31:14.344Z,52.0
2019-05-26T16:48:02.520Z,52.8
2019-05-26T17:04:50.560Z,53.2
2019-05-26T17:21:38.621Z,53.2
2019-05-26T17:38:26.636Z,54.0
2019-05-26T17:55:14.340Z,54.4
2019-05-26T18:12:02.300Z,54.8
2019-05-26T18:28:50.055Z,54.8
2019-05-26T18:45:37.756Z,55.2
2019-05-26T19:02:24.660Z,55.6
2019-05-26T19:19:11.729Z,56.0
2019-05-26T19:35:58.540Z,56.4
2019-05-26T19:52:45.192Z,56.8
2019-05-26T20:09:31.867Z,57.2
2019-05-26T20:26:18.316Z,57.2
2019-05-26T20:43:04.767Z,57.6
2019-05-26T20:59:51.159Z,58.4
2019-05-26T21:16:37.286Z,58.4
2019-05-26T21:33:23.138Z,58.0
2019-05-26T21:50:08.783Z,58.8
2019-05-26T22:06:54.100Z,59.6
2019-05-26T22:23:39.406Z,60.0
2019-05-26T22:40:24.728Z,60.4
2019-05-26T22:57:09.587Z,61.2
2019-05-26T23:13:54.548Z,62.0
2019-05-26T23:30:39.279Z,62.8
2019-05-26T23:47:23.851Z,63.6
